createdAt,value
2022-11-12T00:02:20.857Z,89.75
2022-11-12T00:04:52.176Z,89.76
2022-11-12T00:07:23.411Z,89.84
2022-11-12T00:09:54.661Z,89.04
2022-11-12T00:12:25.894Z,89.35
2022-11-12T00:14:57.092Z,89.46
2022-11-12T00:17:28.370Z,88.92
2022-11-12T00:19:59.750Z,89.22
2022-11-12T00:22:30.960Z,88.94
2022-11-12T00:25:02.469Z,89.28
2022-11-12T00:27:34.051Z,89.85
2022-11-12T00:30:05.801Z,89.08
2022-11-12T00:32:37.599Z,89.93
2022-11-12T00:35:13.373Z,89.73
2022-11-12T00:37:45.306Z,89.68
2022-11-12T00:40:16.516Z,89.44
2022-11-12T00:42:47.761Z,89.71
2022-11-12T00:45:19.798Z,89.44
2022-11-12T00:47:54.252Z,90.07
2022-11-12T00:50:25.609Z,90.20
2022-11-12T00:52:56.887Z,89.50
2022-11-12T00:55:28.100Z,89.86
2022-11-12T00:57:59.435Z,89.68
2022-11-12T01:00:30.726Z,89.67
2022-11-12T01:03:01.931Z,89.84
2022-11-12T01:05:33.774Z,89.26
2022-11-12T01:08:04.985Z,89.55
2022-11-12T01:10:36.486Z,89.95
2022-11-12T01:13:07.836Z,88.98
2022-11-12T01:15:40.492Z,89.83
2022-11-12T01:18:11.721Z,89.08
2022-11-12T01:20:42.899Z,89.17
2022-11-12T01:23:14.136Z,90.01
2022-11-12T01:25:45.424Z,89.68
2022-11-12T01:28:16.704Z,89.99
2022-11-12T01:30:47.923Z,89.70
2022-11-12T01:33:19.132Z,90.13
2022-11-12T01:35:50.314Z,89.03
2022-11-12T01:38:21.550Z,90.02
2022-11-12T01:40:52.791Z,90.01
2022-11-12T01:43:24.077Z,89.54
2022-11-12T01:45:55.843Z,89.34
2022-11-12T01:48:29.705Z,90.03
2022-11-12T01:51:03.541Z,89.69
2022-11-12T01:53:37.311Z,89.24
2022-11-12T01:56:08.991Z,89.34
2022-11-12T01:58:40.759Z,89.37
2022-11-12T02:01:12.070Z,89.02
2022-11-12T02:03:43.298Z,89.40
2022-11-12T02:06:15.612Z,89.64
2022-11-12T02:08:47.176Z,89.14
2022-11-12T02:11:19.721Z,89.88
2022-11-12T02:13:58.157Z,89.74
2022-11-12T02:16:34.499Z,89.62
2022-11-12T02:19:07.195Z,89.40
2022-11-12T02:21:38.812Z,89.58
2022-11-12T02:24:12.757Z,89.14
2022-11-12T02:26:45.835Z,89.53
2022-11-12T02:29:17.146Z,89.94
2022-11-12T02:31:48.348Z,90.02
2022-11-12T02:34:19.565Z,89.15
2022-11-12T02:36:50.860Z,89.87
2022-11-12T02:39:22.281Z,89.80
2022-11-12T02:41:53.479Z,90.13
2022-11-12T02:44:25.061Z,90.06
2022-11-12T02:46:56.300Z,90.08
2022-11-12T02:49:27.526Z,89.50
2022-11-12T02:51:58.813Z,89.22
2022-11-12T02:54:29.994Z,89.84
2022-11-12T02:57:01.236Z,89.66
2022-11-12T02:59:32.430Z,89.24
2022-11-12T03:02:03.796Z,89.73
2022-11-12T03:04:35.030Z,89.25
2022-11-12T03:07:06.458Z,90.29
2022-11-12T03:09:37.671Z,89.58
2022-11-12T03:12:09.202Z,90.34
2022-11-12T03:14:40.732Z,90.39
2022-11-12T03:17:11.924Z,89.84
2022-11-12T03:19:43.133Z,89.86
2022-11-12T03:22:14.509Z,89.24
2022-11-12T03:24:45.730Z,89.59
2022-11-12T03:27:16.974Z,90.41
2022-11-12T03:29:48.245Z,90.51
2022-11-12T03:32:19.454Z,90.18
2022-11-12T03:34:55.288Z,90.21
2022-11-12T03:37:26.927Z,90.23
2022-11-12T03:39:58.121Z,90.00
2022-11-12T03:42:29.340Z,89.35
2022-11-12T03:45:00.527Z,89.46
2022-11-12T03:47:31.754Z,88.91
2022-11-12T03:50:03.144Z,89.29
2022-11-12T03:52:34.376Z,89.29
2022-11-12T03:55:06.265Z,90.17
2022-11-12T03:57:37.483Z,89.79
2022-11-12T04:00:10.320Z,89.24
2022-11-12T04:02:41.532Z,89.24
2022-11-12T04:05:31.621Z,89.48
2022-11-12T04:08:23.672Z,89.27
2022-11-12T04:10:55.152Z,90.13
2022-11-12T04:13:29.557Z,89.33
2022-11-12T04:16:20.714Z,89.77
2022-11-12T04:19:13.024Z,90.12
2022-11-12T04:21:51.612Z,90.22
2022-11-12T04:24:51.580Z,89.64
2022-11-12T04:27:42.438Z,89.63
2022-11-12T04:30:16.698Z,90.83
2022-11-12T04:32:54.396Z,90.39
2022-11-12T04:35:26.405Z,90.23
2022-11-12T04:37:57.683Z,90.65
2022-11-12T04:40:47.888Z,89.64
2022-11-12T04:43:38.039Z,90.62
2022-11-12T04:46:09.518Z,91.00
2022-11-12T04:48:40.819Z,90.79
2022-11-12T04:51:30.860Z,90.35
2022-11-12T04:54:02.071Z,90.40
2022-11-12T04:56:33.258Z,90.53
2022-11-12T04:59:04.559Z,90.02
2022-11-12T05:01:35.882Z,90.19
2022-11-12T05:04:07.189Z,90.06
2022-11-12T05:06:53.852Z,89.85
2022-11-12T05:09:27.067Z,90.08
2022-11-12T05:11:58.431Z,89.82
2022-11-12T05:14:29.644Z,90.01
2022-11-12T05:17:01.261Z,90.14
2022-11-12T05:19:33.593Z,89.88
2022-11-12T05:22:17.478Z,89.88
2022-11-12T05:24:53.410Z,90.23
2022-11-12T05:27:24.701Z,89.33
2022-11-12T05:29:55.927Z,89.54
2022-11-12T05:32:27.272Z,89.44
2022-11-12T05:34:58.500Z,89.42
2022-11-12T05:37:29.981Z,90.13
2022-11-12T05:40:01.208Z,90.17
2022-11-12T05:42:32.462Z,89.94
2022-11-12T05:45:04.244Z,89.85
2022-11-12T05:47:35.446Z,90.08
2022-11-12T05:50:06.985Z,89.66
2022-11-12T05:52:38.187Z,89.18
2022-11-12T05:55:09.517Z,89.66
2022-11-12T05:57:40.714Z,89.27
2022-11-12T06:00:12.732Z,89.64
2022-11-12T06:02:43.959Z,89.69
2022-11-12T06:05:15.213Z,89.17
2022-11-12T06:07:46.420Z,89.89
2022-11-12T06:10:20.432Z,89.90
2022-11-12T06:12:52.148Z,89.32
2022-11-12T06:15:26.832Z,89.44
2022-11-12T06:17:58.032Z,89.01
2022-11-12T06:20:29.236Z,89.37
2022-11-12T06:23:00.495Z,89.33
2022-11-12T06:25:31.710Z,89.78
2022-11-12T06:28:02.985Z,89.75
2022-11-12T06:30:34.200Z,89.75
2022-11-12T06:33:05.515Z,89.47
2022-11-12T06:35:42.628Z,90.09
2022-11-12T06:38:14.254Z,89.48
2022-11-12T06:40:45.535Z,89.39
2022-11-12T06:43:17.030Z,90.20
2022-11-12T06:45:48.245Z,90.06
2022-11-12T06:48:19.538Z,89.74
2022-11-12T06:50:50.748Z,89.66
2022-11-12T06:53:22.026Z,89.89
2022-11-12T06:55:53.255Z,90.14
2022-11-12T06:58:24.756Z,90.17
2022-11-12T07:00:56.341Z,89.97
2022-11-12T07:03:27.575Z,90.36
2022-11-12T07:06:02.887Z,89.63
2022-11-12T07:08:34.128Z,89.98
2022-11-12T07:11:05.922Z,90.29
2022-11-12T07:13:37.136Z,90.38
2022-11-12T07:16:08.451Z,90.33
2022-11-12T07:18:39.824Z,90.28
2022-11-12T07:21:12.714Z,90.42
2022-11-12T07:23:44.592Z,90.17
2022-11-12T07:26:20.384Z,90.10
2022-11-12T07:28:52.252Z,89.81
2022-11-12T07:31:23.586Z,90.02
2022-11-12T07:33:54.985Z,89.88
2022-11-12T07:36:26.576Z,90.24
2022-11-12T07:38:57.821Z,89.91
2022-11-12T07:41:29.138Z,90.04
2022-11-12T07:44:00.324Z,90.01
2022-11-12T07:46:31.523Z,90.36
2022-11-12T07:49:02.833Z,89.91
2022-11-12T07:51:34.072Z,90.52
2022-11-12T07:54:05.449Z,90.45
2022-11-12T07:56:36.658Z,90.07
2022-11-12T07:59:07.885Z,90.23
2022-11-12T08:01:40.356Z,90.29
2022-11-12T08:04:14.307Z,90.30
2022-11-12T08:06:45.612Z,90.68
2022-11-12T08:09:17.003Z,90.92
2022-11-12T08:11:48.209Z,90.58
2022-11-12T08:14:19.560Z,90.81
2022-11-12T08:16:50.784Z,90.51
2022-11-12T08:19:22.037Z,91.01
2022-11-12T08:21:53.241Z,90.95
2022-11-12T08:24:24.516Z,91.28
2022-11-12T08:26:55.715Z,90.65
2022-11-12T08:29:26.902Z,91.58
2022-11-12T08:31:58.108Z,91.31
2022-11-12T08:34:29.316Z,91.16
2022-11-12T08:37:01.003Z,90.75
2022-11-12T08:39:32.323Z,92.02
2022-11-12T08:42:03.688Z,91.79
2022-11-12T08:44:34.879Z,92.30
2022-11-12T08:47:06.173Z,91.34
2022-11-12T08:49:37.381Z,92.76
2022-11-12T08:52:08.581Z,92.65
2022-11-12T08:54:39.806Z,91.85
2022-11-12T08:57:11.020Z,92.58
2022-11-12T08:59:42.213Z,92.14
2022-11-12T09:02:13.837Z,92.75
2022-11-12T09:04:45.090Z,92.68
2022-11-12T09:07:43.439Z,92.60
2022-11-12T09:10:07.827Z,91.91
2022-11-12T09:12:39.039Z,92.29
2022-11-12T09:15:36.149Z,93.17
2022-11-12T09:18:05.611Z,93.42
2022-11-12T09:20:36.891Z,93.44
2022-11-12T09:23:12.089Z,93.36
2022-11-12T09:25:43.617Z,93.03
2022-11-12T09:28:16.412Z,93.67
2022-11-12T09:30:49.269Z,93.16
2022-11-12T09:33:21.962Z,93.70
2022-11-12T09:35:53.542Z,93.71
2022-11-12T09:38:25.208Z,93.69
2022-11-12T09:41:05.578Z,93.80
2022-11-12T09:43:45.508Z,94.10
2022-11-12T09:46:37.676Z,94.25
2022-11-12T09:49:28.943Z,94.25
2022-11-12T09:52:03.319Z,94.43
2022-11-12T09:54:35.304Z,94.12
2022-11-12T09:57:09.716Z,94.26
2022-11-12T09:59:41.797Z,93.98
2022-11-12T10:02:23.343Z,94.10
2022-11-12T10:04:57.645Z,94.46
2022-11-12T10:07:47.591Z,94.66
2022-11-12T10:10:24.342Z,94.21
2022-11-12T10:13:08.795Z,94.12
2022-11-12T10:16:11.162Z,94.59
2022-11-12T10:19:00.556Z,93.98
2022-11-12T10:21:55.056Z,94.77
2022-11-12T10:24:30.067Z,94.41
2022-11-12T10:27:02.578Z,94.89
2022-11-12T10:29:43.061Z,94.14
2022-11-12T10:32:15.571Z,94.37
2022-11-12T10:34:47.009Z,93.96
2022-11-12T10:37:25.355Z,94.08
2022-11-12T10:39:56.545Z,94.10
2022-11-12T10:42:27.796Z,94.22
2022-11-12T10:45:15.547Z,93.97
2022-11-12T10:47:46.786Z,93.54
2022-11-12T10:50:21.019Z,93.53
2022-11-12T10:52:58.331Z,93.78
2022-11-12T10:55:33.409Z,93.43
2022-11-12T10:58:05.093Z,93.67
2022-11-12T11:00:37.052Z,93.10
2022-11-12T11:03:31.388Z,93.16
2022-11-12T11:06:15.076Z,93.08
2022-11-12T11:08:47.669Z,93.35
2022-11-12T11:11:23.843Z,93.07
2022-11-12T11:13:56.500Z,93.05
2022-11-12T11:16:29.005Z,93.12
2022-11-12T11:19:03.895Z,92.92
2022-11-12T11:21:47.771Z,92.92
2022-11-12T11:24:31.054Z,92.98
2022-11-12T11:27:04.621Z,93.06
2022-11-12T11:29:41.747Z,92.98
2022-11-12T11:32:37.426Z,93.05
2022-11-12T11:35:21.064Z,92.98
2022-11-12T11:37:58.413Z,93.10
2022-11-12T11:40:33.896Z,93.14
2022-11-12T11:43:15.427Z,93.29
2022-11-12T11:45:55.859Z,93.20
2022-11-12T11:48:45.833Z,93.41
2022-11-12T11:51:29.162Z,93.65
2022-11-12T11:54:09.575Z,93.90
2022-11-12T11:56:42.714Z,94.02
2022-11-12T11:59:20.114Z,94.01
2022-11-12T12:01:51.289Z,94.28
2022-11-12T12:04:25.335Z,93.92
2022-11-12T12:07:12.031Z,94.22
2022-11-12T12:10:07.794Z,94.53
2022-11-12T12:13:03.490Z,94.73
2022-11-12T12:15:40.974Z,94.86
2022-11-12T12:18:15.101Z,95.38
2022-11-12T12:21:03.087Z,95.18
2022-11-12T12:23:53.003Z,95.73
2022-11-12T12:26:30.616Z,95.86
2022-11-12T12:29:10.591Z,95.85
2022-11-12T12:31:47.105Z,96.01
2022-11-12T12:34:25.244Z,96.02
2022-11-12T12:37:06.495Z,96.48
2022-11-12T12:39:50.271Z,96.30
2022-11-12T12:42:26.284Z,96.43
2022-11-12T12:45:05.558Z,96.64
2022-11-12T12:47:39.164Z,96.47
2022-11-12T12:50:12.455Z,97.17
2022-11-12T12:53:00.522Z,97.03
2022-11-12T12:55:43.814Z,96.92
2022-11-12T12:58:21.999Z,97.27
2022-11-12T13:00:57.122Z,97.70
2022-11-12T13:03:49.986Z,96.97
2022-11-12T13:06:21.227Z,97.29
2022-11-12T13:09:01.311Z,97.16
2022-11-12T13:12:01.450Z,97.36
2022-11-12T13:14:35.817Z,97.38
2022-11-12T13:17:07.107Z,97.19
2022-11-12T13:19:44.297Z,97.35
2022-11-12T13:22:18.467Z,97.18
2022-11-12T13:25:05.121Z,97.04
2022-11-12T13:27:39.587Z,96.82
2022-11-12T13:30:10.869Z,96.56
2022-11-12T13:32:47.982Z,96.83
2022-11-12T13:35:21.973Z,96.81
2022-11-12T13:38:02.533Z,96.50
2022-11-12T13:40:50.417Z,96.38
2022-11-12T13:43:24.757Z,96.44
2022-11-12T13:46:15.235Z,96.41
2022-11-12T13:48:47.977Z,96.46
2022-11-12T13:51:34.345Z,96.09
2022-11-12T13:54:24.810Z,96.24
2022-11-12T13:56:56.563Z,95.99
2022-11-12T13:59:27.875Z,95.93
2022-11-12T14:02:03.495Z,96.21
2022-11-12T14:04:35.018Z,96.09
2022-11-12T14:07:17.329Z,96.12
2022-11-12T14:09:57.791Z,95.90
2022-11-12T14:12:45.598Z,95.42
2022-11-12T14:15:28.141Z,95.31
2022-11-12T14:17:59.559Z,95.20
2022-11-12T14:20:38.108Z,95.17
2022-11-12T14:23:24.548Z,95.06
2022-11-12T14:25:57.118Z,95.16
2022-11-12T14:28:30.371Z,94.92
2022-11-12T14:31:02.607Z,94.80
2022-11-12T14:33:33.842Z,94.89
2022-11-12T14:36:05.323Z,94.52
2022-11-12T14:38:38.019Z,94.10
2022-11-12T14:41:23.790Z,94.11
2022-11-12T14:44:11.492Z,93.70
2022-11-12T14:46:48.331Z,93.91
2022-11-12T14:49:28.526Z,93.66
2022-11-12T14:52:05.489Z,93.41
2022-11-12T14:54:40.899Z,93.38
2022-11-12T14:57:19.002Z,93.24
2022-11-12T14:59:50.264Z,93.07
2022-11-12T15:02:51.271Z,93.25
2022-11-12T15:05:23.830Z,93.03
2022-11-12T15:07:59.425Z,93.17
2022-11-12T15:10:31.971Z,93.02
2022-11-12T15:13:03.146Z,93.12
2022-11-12T15:15:35.548Z,92.88
2022-11-12T15:18:21.590Z,92.88
2022-11-12T15:21:11.732Z,92.81
2022-11-12T15:23:50.132Z,92.78
2022-11-12T15:26:35.267Z,92.97
2022-11-12T15:29:12.528Z,92.76
2022-11-12T15:31:48.039Z,92.71
2022-11-12T15:34:25.425Z,92.30
2022-11-12T15:36:57.740Z,92.41
2022-11-12T15:39:29.345Z,92.29
2022-11-12T15:42:02.259Z,91.87
2022-11-12T15:44:35.015Z,91.84
2022-11-12T15:47:09.432Z,91.74
2022-11-12T15:49:47.309Z,91.95
2022-11-12T15:52:18.746Z,91.84
2022-11-12T15:54:50.221Z,91.61
2022-11-12T15:57:23.189Z,91.89
2022-11-12T15:59:57.364Z,92.75
2022-11-12T16:02:29.583Z,92.51
2022-11-12T16:05:00.780Z,92.60
2022-11-12T16:07:32.012Z,92.08
2022-11-12T16:10:03.357Z,92.54
2022-11-12T16:12:34.746Z,92.03
2022-11-12T16:15:12.351Z,91.98
2022-11-12T16:17:43.848Z,92.03
2022-11-12T16:20:16.193Z,91.93
2022-11-12T16:22:48.238Z,92.44
2022-11-12T16:25:20.261Z,92.31
2022-11-12T16:27:55.704Z,91.74
2022-11-12T16:30:29.411Z,91.79
2022-11-12T16:33:01.038Z,91.22
2022-11-12T16:35:34.452Z,91.64
2022-11-12T16:38:12.064Z,91.22
2022-11-12T16:40:44.039Z,91.19
2022-11-12T16:43:15.393Z,91.46
2022-11-12T16:45:46.595Z,91.47
2022-11-12T16:48:19.479Z,91.38
2022-11-12T16:50:50.850Z,91.47
2022-11-12T16:53:22.044Z,91.88
2022-11-12T16:55:53.247Z,91.98
2022-11-12T16:58:24.448Z,91.93
2022-11-12T17:00:55.685Z,91.76
2022-11-12T17:03:27.257Z,92.09
2022-11-12T17:05:59.237Z,91.65
2022-11-12T17:08:33.915Z,91.65
2022-11-12T17:11:06.038Z,91.50
2022-11-12T17:13:38.657Z,91.77
2022-11-12T17:16:10.691Z,91.72
2022-11-12T17:18:42.366Z,91.50
2022-11-12T17:21:15.436Z,91.31
2022-11-12T17:23:46.765Z,91.07
2022-11-12T17:26:21.518Z,91.56
2022-11-12T17:29:00.164Z,91.46
2022-11-12T17:31:33.595Z,91.47
2022-11-12T17:34:08.727Z,91.44
2022-11-12T17:36:43.505Z,91.73
2022-11-12T17:39:15.116Z,92.47
2022-11-12T17:41:46.339Z,92.47
2022-11-12T17:44:18.191Z,92.41
2022-11-12T17:46:50.310Z,92.64
2022-11-12T17:49:21.556Z,92.49
2022-11-12T17:51:52.840Z,92.88
2022-11-12T17:54:24.093Z,92.90
2022-11-12T17:56:55.298Z,93.04
2022-11-12T17:59:26.540Z,93.29
2022-11-12T18:01:57.727Z,93.06
2022-11-12T18:04:30.941Z,93.26
2022-11-12T18:07:02.691Z,92.54
2022-11-12T18:09:33.958Z,92.76
2022-11-12T18:12:05.367Z,92.74
2022-11-12T18:14:38.310Z,92.60
2022-11-12T18:17:13.839Z,92.55
2022-11-12T18:19:48.159Z,92.94
2022-11-12T18:22:21.014Z,92.85
2022-11-12T18:24:52.864Z,92.53
2022-11-12T18:27:24.097Z,93.10
2022-11-12T18:29:55.291Z,92.99
2022-11-12T18:32:26.528Z,93.07
2022-11-12T18:34:57.853Z,92.93
2022-11-12T18:37:29.080Z,93.07
2022-11-12T18:40:00.322Z,93.14
2022-11-12T18:42:31.614Z,93.27
2022-11-12T18:45:02.889Z,92.97
2022-11-12T18:47:34.100Z,92.63
2022-11-12T18:50:08.804Z,92.44
2022-11-12T18:52:40.746Z,92.34
2022-11-12T18:55:12.090Z,92.30
2022-11-12T18:57:43.318Z,92.50
2022-11-12T19:00:15.578Z,93.00
2022-11-12T19:02:46.880Z,92.67
2022-11-12T19:05:20.718Z,92.65
2022-11-12T19:07:52.056Z,92.19
2022-11-12T19:10:23.342Z,92.20
2022-11-12T19:12:54.670Z,92.46
2022-11-12T19:15:27.170Z,92.59
2022-11-12T19:17:58.490Z,92.25
2022-11-12T19:20:30.029Z,92.54
2022-11-12T19:23:01.235Z,92.84
2022-11-12T19:25:34.366Z,92.79
2022-11-12T19:28:05.614Z,92.84
2022-11-12T19:30:36.832Z,92.58
2022-11-12T19:33:08.071Z,92.71
2022-11-12T19:35:40.067Z,92.58
2022-11-12T19:38:11.281Z,92.93
2022-11-12T19:40:42.517Z,92.78
2022-11-12T19:43:13.777Z,92.75
2022-11-12T19:45:45.103Z,93.08
2022-11-12T19:48:16.314Z,93.06
2022-11-12T19:50:47.561Z,92.99
2022-11-12T19:53:18.968Z,93.13
2022-11-12T19:55:50.187Z,93.15
2022-11-12T19:58:21.412Z,93.36
2022-11-12T20:00:52.670Z,93.36
2022-11-12T20:03:26.314Z,93.15
2022-11-12T20:06:07.716Z,92.80
2022-11-12T20:08:39.201Z,92.94
2022-11-12T20:11:10.618Z,93.31
2022-11-12T20:13:41.880Z,92.82
2022-11-12T20:16:13.856Z,92.90
2022-11-12T20:18:49.813Z,92.69
2022-11-12T20:21:24.188Z,92.49
2022-11-12T20:23:55.576Z,92.34
2022-11-12T20:26:26.947Z,92.42
2022-11-12T20:28:58.157Z,92.33
2022-11-12T20:31:29.384Z,92.28
2022-11-12T20:34:01.898Z,92.08
2022-11-12T20:36:33.134Z,92.33
2022-11-12T20:39:04.668Z,92.26
2022-11-12T20:41:35.861Z,92.12
2022-11-12T20:44:07.069Z,91.87
2022-11-12T20:46:38.266Z,92.03
2022-11-12T20:49:09.469Z,92.17
2022-11-12T20:51:40.722Z,92.23
2022-11-12T20:54:11.934Z,91.90
2022-11-12T20:56:44.244Z,92.23
2022-11-12T20:59:15.486Z,92.02
2022-11-12T21:01:46.778Z,92.34
2022-11-12T21:04:18.028Z,92.35
2022-11-12T21:06:50.019Z,92.04
2022-11-12T21:09:21.290Z,92.46
2022-11-12T21:11:52.701Z,92.70
2022-11-12T21:14:23.981Z,92.31
2022-11-12T21:16:55.209Z,92.41
2022-11-12T21:19:26.425Z,92.24
2022-11-12T21:21:57.618Z,92.52
2022-11-12T21:24:28.822Z,91.90
2022-11-12T21:27:00.274Z,92.27
2022-11-12T21:29:31.561Z,91.71
2022-11-12T21:32:02.795Z,92.24
2022-11-12T21:34:34.067Z,91.69
2022-11-12T21:37:05.314Z,92.19
2022-11-12T21:39:36.779Z,91.89
2022-11-12T21:42:07.973Z,91.64
2022-11-12T21:44:39.181Z,91.93
2022-11-12T21:47:10.435Z,91.78
2022-11-12T21:49:41.662Z,91.96
2022-11-12T21:52:12.999Z,92.08
2022-11-12T21:54:44.216Z,92.07
2022-11-12T21:57:18.747Z,92.00
2022-11-12T21:59:50.282Z,91.85
2022-11-12T22:02:21.502Z,92.44
2022-11-12T22:04:52.750Z,91.74
2022-11-12T22:07:24.016Z,92.10
2022-11-12T22:09:57.070Z,92.01
2022-11-12T22:12:28.446Z,92.27
2022-11-12T22:14:59.666Z,91.68
2022-11-12T22:17:32.730Z,91.69
2022-11-12T22:20:04.122Z,91.66
2022-11-12T22:22:35.318Z,91.64
2022-11-12T22:25:06.748Z,91.18
2022-11-12T22:27:37.968Z,91.88
2022-11-12T22:30:09.533Z,91.49
2022-11-12T22:32:40.873Z,92.43
2022-11-12T22:35:12.119Z,91.93
2022-11-12T22:37:43.298Z,91.88
2022-11-12T22:40:14.715Z,92.30
2022-11-12T22:42:45.895Z,92.20
2022-11-12T22:45:18.048Z,92.43
2022-11-12T22:47:49.272Z,91.84
2022-11-12T22:50:20.543Z,92.13
2022-11-12T22:52:51.735Z,92.19
2022-11-12T22:55:22.979Z,92.01
2022-11-12T22:57:54.180Z,92.25
2022-11-12T23:00:28.967Z,92.40
2022-11-12T23:03:00.170Z,92.60
2022-11-12T23:05:34.429Z,92.14
2022-11-12T23:08:05.656Z,92.05
2022-11-12T23:10:40.386Z,91.59
2022-11-12T23:13:14.216Z,91.89
2022-11-12T23:15:45.932Z,91.99
2022-11-12T23:18:17.135Z,91.77
2022-11-12T23:20:48.534Z,92.11
2022-11-12T23:23:19.803Z,92.08
2022-11-12T23:25:51.091Z,92.37
2022-11-12T23:28:22.376Z,92.70
2022-11-12T23:30:53.579Z,92.29
2022-11-12T23:33:24.783Z,93.04
2022-11-12T23:36:03.633Z,92.84
2022-11-12T23:38:34.835Z,93.16
2022-11-12T23:41:06.266Z,93.04
2022-11-12T23:43:37.492Z,93.04
2022-11-12T23:46:09.218Z,92.99
2022-11-12T23:48:40.758Z,92.88
2022-11-12T23:51:13.350Z,93.44
2022-11-12T23:53:44.658Z,93.47
2022-11-12T23:56:16.706Z,93.35
2022-11-12T23:58:47.934Z,93.42
